Time;durP1;ratioP1;P1;durP2;ratioP2;P2;SDS_P1;SDS_P2;PMS_P1;PMS_P2;Temp;Humidity;BMP_temperature;BMP_pressure;BME280_temperature;BME280_humidity;BME280_pressure;Samples;Min_cycle;Max_cycle;Signal;HPM_P1;HPM_P2
2022/03/24 00:00:35;;;;;;;29.38;18.38;;;6.30;39.10;;;;;;5113944;28;20454;-20
2022/03/24 00:03:01;;;;;;;27.83;17.38;;;6.20;39.90;;;;;;5114194;28;20035;-20
2022/03/24 00:05:27;;;;;;;24.02;15.40;;;6.20;41.60;;;;;;5113982;28;20031;-20
2022/03/24 00:07:53;;;;;;;28.30;18.45;;;6.10;39.90;;;;;;5114051;28;20032;-20
2022/03/24 00:10:19;;;;;;;18.95;11.95;;;6.00;41.00;;;;;;5114125;28;20023;-20
2022/03/24 00:12:45;;;;;;;23.27;13.13;;;5.90;40.00;;;;;;5114376;28;20076;-20
2022/03/24 00:15:12;;;;;;;21.30;12.70;;;5.90;40.30;;;;;;5113979;28;20012;-20
2022/03/24 00:17:38;;;;;;;25.08;15.45;;;5.90;39.50;;;;;;5113665;28;20197;-20
2022/03/24 00:20:04;;;;;;;19.17;10.80;;;5.80;40.70;;;;;;5113811;28;20118;-20
2022/03/24 00:22:30;;;;;;;16.17;9.88;;;5.80;39.70;;;;;;5113961;28;20102;-21
2022/03/24 00:24:56;;;;;;;25.50;14.95;;;5.80;39.70;;;;;;5113749;28;20172;-21
2022/03/24 00:27:23;;;;;;;21.52;13.02;;;5.70;40.30;;;;;;5114111;28;20032;-20
2022/03/24 00:29:49;;;;;;;16.42;9.70;;;5.60;40.20;;;;;;5112585;28;20085;-20
2022/03/24 00:32:15;;;;;;;17.08;8.85;;;5.60;39.90;;;;;;5112339;28;20066;-21
2022/03/24 00:34:41;;;;;;;15.15;8.85;;;5.50;39.50;;;;;;5112316;28;20027;-20
2022/03/24 00:37:08;;;;;;;22.75;13.43;;;5.60;39.50;;;;;;5114319;28;20016;-20
2022/03/24 00:39:34;;;;;;;17.58;10.55;;;5.50;40.70;;;;;;5113917;28;20032;-20
2022/03/24 00:42:11;;;;;;;15.52;9.93;;;5.40;40.10;;;;;;5113620;28;20492;-21
2022/03/24 00:44:42;;;;;;;27.58;18.02;;;5.40;39.80;;;;;;5113673;28;20069;-21
2022/03/24 00:47:10;;;;;;;25.55;14.90;;;5.40;40.10;;;;;;5113569;28;20488;-23
2022/03/24 00:49:37;;;;;;;24.33;15.35;;;5.30;40.20;;;;;;5113683;28;20074;-20
2022/03/24 00:52:03;;;;;;;19.17;10.82;;;5.30;40.00;;;;;;5113502;28;20514;-20
2022/03/24 00:54:29;;;;;;;19.50;11.18;;;5.20;40.10;;;;;;5113519;28;20026;-21
2022/03/24 00:56:55;;;;;;;16.30;10.00;;;5.20;40.10;;;;;;5113787;28;20028;-21
2022/03/24 00:59:22;;;;;;;28.92;19.45;;;5.10;40.20;;;;;;5113483;28;20478;-20
2022/03/24 01:01:49;;;;;;;24.60;14.35;;;5.10;40.70;;;;;;5113438;28;20107;-20
2022/03/24 01:04:15;;;;;;;15.38;9.30;;;5.10;41.00;;;;;;5113525;28;20036;-21
2022/03/24 01:06:41;;;;;;;21.52;12.48;;;5.00;40.50;;;;;;5113714;28;20028;-21
2022/03/24 01:09:07;;;;;;;25.58;15.30;;;5.00;42.60;;;;;;5113402;28;20027;-20
2022/03/24 01:11:34;;;;;;;21.23;11.73;;;4.90;41.90;;;;;;5113294;28;20139;-20
2022/03/24 01:14:01;;;;;;;17.88;11.60;;;4.90;41.80;;;;;;5113547;28;20028;-20
2022/03/24 01:16:27;;;;;;;21.02;12.38;;;4.90;41.80;;;;;;5116879;28;20042;-21
2022/03/24 01:18:53;;;;;;;24.48;14.30;;;4.80;41.90;;;;;;5117338;28;20042;-20
2022/03/24 01:21:19;;;;;;;27.33;16.15;;;4.80;43.00;;;;;;5117075;28;20035;-21
2022/03/24 01:23:45;;;;;;;15.90;10.30;;;4.80;43.10;;;;;;5117518;28;20084;-21
2022/03/24 01:26:12;;;;;;;16.35;9.60;;;4.70;42.00;;;;;;5117552;27;20058;-21
2022/03/24 01:28:39;;;;;;;15.20;8.93;;;4.70;41.50;;;;;;5116948;28;20398;-20
2022/03/24 01:31:08;;;;;;;16.08;9.20;;;4.70;41.30;;;;;;5117445;28;20444;-20
2022/03/24 01:33:38;;;;;;;16.63;10.02;;;4.60;41.20;;;;;;5117074;28;20136;-20
2022/03/24 01:36:09;;;;;;;20.10;11.02;;;4.60;41.50;;;;;;5116982;28;20427;-20
2022/03/24 01:38:37;;;;;;;14.98;9.07;;;4.60;42.40;;;;;;5117085;28;20058;-21
2022/03/24 01:41:03;;;;;;;13.10;8.18;;;4.50;41.60;;;;;;5116954;28;20024;-21
2022/03/24 01:43:30;;;;;;;16.65;8.60;;;4.50;41.30;;;;;;5116872;28;20082;-20
2022/03/24 01:45:56;;;;;;;12.93;8.05;;;4.40;41.10;;;;;;5116845;28;20085;-21
2022/03/24 01:48:22;;;;;;;13.73;7.95;;;4.40;41.30;;;;;;5116649;27;20020;-21
2022/03/24 01:50:48;;;;;;;15.70;8.30;;;4.40;41.20;;;;;;5116998;28;20085;-21
2022/03/24 01:53:15;;;;;;;14.15;8.57;;;4.30;41.40;;;;;;5117045;28;20036;-20
2022/03/24 01:55:45;;;;;;;13.13;7.68;;;4.30;41.90;;;;;;5117288;28;20095;-20
2022/03/24 01:58:12;;;;;;;18.85;12.20;;;4.20;41.60;;;;;;5116925;27;20023;-20
2022/03/24 02:00:39;;;;;;;17.55;9.82;;;4.20;41.50;;;;;;5116344;28;20055;-20
2022/03/24 02:03:06;;;;;;;17.35;10.05;;;4.10;41.70;;;;;;5116594;28;20020;-20
2022/03/24 02:05:34;;;;;;;17.77;10.73;;;4.10;41.50;;;;;;5116639;28;20072;-20
2022/03/24 02:08:06;;;;;;;15.45;9.10;;;4.10;41.80;;;;;;5117234;28;20036;-21
2022/03/24 02:10:33;;;;;;;15.85;9.13;;;4.00;41.60;;;;;;5116578;28;20361;-21
2022/03/24 02:12:59;;;;;;;19.73;11.02;;;4.00;41.80;;;;;;5116960;28;20024;-20
2022/03/24 02:15:27;;;;;;;14.05;8.75;;;3.90;42.00;;;;;;5116263;28;20383;-20
2022/03/24 02:17:53;;;;;;;13.27;7.78;;;3.90;41.90;;;;;;5116521;28;20055;-21
2022/03/24 02:20:24;;;;;;;14.00;7.93;;;3.90;42.00;;;;;;5115888;28;20110;-21
2022/03/24 02:22:51;;;;;;;16.85;8.80;;;3.90;42.20;;;;;;5116090;28;20384;-21
2022/03/24 02:25:18;;;;;;;30.48;17.85;;;3.90;42.90;;;;;;5116331;28;20034;-20
2022/03/24 02:27:49;;;;;;;19.45;11.93;;;3.80;44.00;;;;;;5113592;28;20057;-20
2022/03/24 02:30:15;;;;;;;20.83;11.45;;;3.80;43.50;;;;;;5116651;28;20506;-21
2022/03/24 02:32:42;;;;;;;17.75;10.75;;;3.70;42.80;;;;;;5116180;28;20031;-20
2022/03/24 02:35:09;;;;;;;21.65;13.00;;;3.70;42.70;;;;;;5116181;28;20016;-20
2022/03/24 02:37:35;;;;;;;17.98;10.68;;;3.70;43.40;;;;;;5116548;28;20020;-20
2022/03/24 02:40:01;;;;;;;16.73;9.27;;;3.70;43.20;;;;;;5115803;28;20459;-20
2022/03/24 02:42:29;;;;;;;18.08;10.80;;;3.60;43.00;;;;;;5115859;28;20060;-21
2022/03/24 02:44:57;;;;;;;29.85;18.08;;;3.60;42.80;;;;;;5115595;28;20028;-20
2022/03/24 02:47:24;;;;;;;24.63;14.30;;;3.60;44.30;;;;;;5115670;28;20482;-20
2022/03/24 02:49:53;;;;;;;34.50;18.73;;;3.60;45.30;;;;;;5115865;28;20020;-20
2022/03/24 02:52:19;;;;;;;22.90;14.20;;;3.60;45.20;;;;;;5115383;28;20469;-20
2022/03/24 02:54:45;;;;;;;29.92;17.77;;;3.60;45.50;;;;;;5115651;28;20043;-21
2022/03/24 02:57:11;;;;;;;18.08;10.52;;;3.60;46.90;;;;;;5115563;28;20022;-21
2022/03/24 02:59:38;;;;;;;17.13;10.35;;;3.50;44.90;;;;;;5115444;28;20028;-21
2022/03/24 03:02:13;;;;;;;19.58;11.00;;;3.50;44.30;;;;;;5115403;28;20099;-21
2022/03/24 03:04:41;;;;;;;22.73;14.05;;;3.50;44.50;;;;;;5115432;28;20054;-21
2022/03/24 03:07:07;;;;;;;29.92;17.58;;;3.50;44.40;;;;;;5115593;28;20024;-21
2022/03/24 03:09:36;;;;;;;21.88;12.55;;;3.50;44.90;;;;;;5115515;28;20032;-20
2022/03/24 03:12:02;;;;;;;46.20;26.83;;;3.40;45.10;;;;;;5115184;28;20026;-21
2022/03/24 03:14:31;;;;;;;19.92;11.20;;;3.40;45.00;;;;;;5115402;28;20031;-21
2022/03/24 03:16:58;;;;;;;18.08;9.88;;;3.40;45.20;;;;;;5115321;28;20030;-21
2022/03/24 03:19:26;;;;;;;27.92;14.02;;;3.40;44.70;;;;;;5115576;28;20037;-21
2022/03/24 03:21:52;;;;;;;25.50;14.77;;;3.40;47.00;;;;;;5115202;28;20061;-21
2022/03/24 03:24:22;;;;;;;18.23;10.60;;;3.40;46.20;;;;;;5115021;28;20037;-21
2022/03/24 03:26:49;;;;;;;17.92;9.80;;;3.30;45.50;;;;;;5114923;28;20031;-21
2022/03/24 03:29:16;;;;;;;26.70;16.02;;;3.30;45.10;;;;;;5114854;28;20035;-21
2022/03/24 03:31:42;;;;;;;17.40;10.25;;;3.30;47.00;;;;;;5114754;28;20092;-21
2022/03/24 03:34:09;;;;;;;18.52;11.13;;;3.30;46.30;;;;;;5114762;28;20023;-21
2022/03/24 03:36:37;;;;;;;22.05;13.65;;;3.20;46.70;;;;;;5114943;28;20023;-21
2022/03/24 03:39:04;;;;;;;15.27;9.60;;;3.20;46.60;;;;;;5114363;28;20110;-21
2022/03/24 03:41:30;;;;;;;18.58;10.73;;;3.20;46.00;;;;;;5114962;28;20023;-21
2022/03/24 03:43:57;;;;;;;20.73;13.52;;;3.10;46.30;;;;;;5114795;28;20027;-21
2022/03/24 03:46:24;;;;;;;15.63;8.68;;;3.10;45.50;;;;;;5114474;28;20035;-21
2022/03/24 03:48:51;;;;;;;14.57;8.77;;;3.00;45.40;;;;;;5114800;28;20024;-21
2022/03/24 03:51:17;;;;;;;24.17;13.90;;;3.00;45.10;;;;;;5114350;28;20031;-21
2022/03/24 03:53:43;;;;;;;23.20;12.73;;;2.90;45.00;;;;;;5114397;28;20038;-21
2022/03/24 03:56:09;;;;;;;24.88;14.38;;;2.90;45.10;;;;;;5114341;28;20023;-21
2022/03/24 03:58:36;;;;;;;20.00;11.35;;;2.90;46.50;;;;;;5114081;28;20028;-21
2022/03/24 04:01:04;;;;;;;21.52;12.70;;;2.80;45.40;;;;;;5114221;28;20387;-21
2022/03/24 04:03:32;;;;;;;22.60;14.65;;;2.80;46.00;;;;;;5114440;28;20501;-21
2022/03/24 04:06:00;;;;;;;16.50;9.95;;;2.80;46.70;;;;;;5114330;28;20020;-21
2022/03/24 04:08:31;;;;;;;16.13;10.07;;;2.80;45.80;;;;;;5113875;28;20053;-21
2022/03/24 04:10:57;;;;;;;13.82;8.68;;;2.80;46.10;;;;;;5114574;28;20049;-21
2022/03/24 04:13:24;;;;;;;27.60;15.18;;;2.70;46.20;;;;;;5114109;28;20027;-21
2022/03/24 04:15:53;;;;;;;28.27;15.70;;;2.70;45.90;;;;;;5114247;28;20026;-21
2022/03/24 04:18:19;;;;;;;28.00;16.92;;;2.70;47.30;;;;;;5113490;28;20391;-22
2022/03/24 04:20:45;;;;;;;19.92;12.45;;;2.60;48.10;;;;;;5114163;28;20028;-21
2022/03/24 04:23:14;;;;;;;15.73;9.30;;;2.60;47.30;;;;;;5113853;28;20024;-21
2022/03/24 04:25:40;;;;;;;17.45;9.98;;;2.60;46.50;;;;;;5113931;28;20016;-21
2022/03/24 04:28:07;;;;;;;20.27;10.85;;;2.60;46.30;;;;;;5114115;28;20077;-21
2022/03/24 04:30:34;;;;;;;29.02;17.08;;;2.60;46.70;;;;;;5113644;28;20024;-21
2022/03/24 04:33:00;;;;;;;26.65;14.15;;;2.60;47.20;;;;;;5113681;28;20035;-21
2022/03/24 04:35:27;;;;;;;25.02;14.70;;;2.60;46.40;;;;;;5113898;28;20024;-21
2022/03/24 04:37:53;;;;;;;34.63;18.45;;;2.60;48.10;;;;;;5113957;28;20028;-21
2022/03/24 04:40:20;;;;;;;21.25;12.38;;;2.60;47.10;;;;;;5113556;28;20039;-21
2022/03/24 04:42:52;;;;;;;24.95;13.90;;;2.50;47.50;;;;;;5113644;28;20031;-21
2022/03/24 04:45:19;;;;;;;20.27;11.93;;;2.60;48.30;;;;;;5113854;28;20020;-21
2022/03/24 04:47:47;;;;;;;15.23;8.52;;;2.50;47.50;;;;;;5113852;28;20081;-21
2022/03/24 04:50:14;;;;;;;15.85;8.40;;;2.50;47.40;;;;;;5112774;28;20487;-21
2022/03/24 04:52:41;;;;;;;17.65;9.45;;;2.60;47.00;;;;;;5113537;28;20480;-21
2022/03/24 04:55:09;;;;;;;14.18;8.30;;;2.50;47.80;;;;;;5113501;28;20028;-21
2022/03/24 04:57:35;;;;;;;14.25;7.72;;;2.50;47.10;;;;;;5113763;28;20023;-21
2022/03/24 05:00:01;;;;;;;12.27;7.57;;;2.50;46.90;;;;;;5114099;28;20024;-21
2022/03/24 05:02:27;;;;;;;14.38;7.80;;;2.50;46.50;;;;;;5113521;28;20413;-21
2022/03/24 05:04:56;;;;;;;12.73;6.82;;;2.50;46.80;;;;;;5113302;28;20122;-21
2022/03/24 05:07:22;;;;;;;26.15;15.55;;;2.40;46.60;;;;;;5114070;28;20450;-21
2022/03/24 05:09:52;;;;;;;14.93;8.32;;;2.40;47.60;;;;;;5113345;28;20063;-21
2022/03/24 05:12:19;;;;;;;20.30;10.82;;;2.40;47.50;;;;;;5113161;28;20024;-21
2022/03/24 05:14:45;;;;;;;14.10;8.25;;;2.40;47.80;;;;;;5113581;28;20434;-21
2022/03/24 05:17:12;;;;;;;17.70;9.65;;;2.40;47.30;;;;;;5113997;28;20138;-21
2022/03/24 05:19:39;;;;;;;13.93;7.72;;;2.30;48.10;;;;;;5113200;28;20461;-22
2022/03/24 05:22:06;;;;;;;14.30;7.43;;;2.30;47.00;;;;;;5113580;28;20023;-21
2022/03/24 05:24:31;;;;;;;16.40;9.15;;;2.30;46.70;;;;;;5113200;28;20020;-21
2022/03/24 05:26:57;;;;;;;13.93;7.85;;;2.40;46.40;;;;;;5113254;28;20467;-21
2022/03/24 05:29:23;;;;;;;12.55;7.05;;;2.30;46.60;;;;;;5113213;28;20102;-21
2022/03/24 05:31:49;;;;;;;22.17;11.38;;;2.40;46.50;;;;;;5113167;28;20028;-21
2022/03/24 05:34:15;;;;;;;16.70;9.45;;;2.40;47.00;;;;;;5113428;28;20024;-22
2022/03/24 05:36:41;;;;;;;13.13;8.00;;;2.40;47.00;;;;;;5113037;28;20027;-21
2022/03/24 05:39:07;;;;;;;12.05;6.70;;;2.40;47.10;;;;;;5113054;28;20023;-21
2022/03/24 05:41:33;;;;;;;12.48;6.90;;;2.50;46.70;;;;;;5113065;28;20031;-21
2022/03/24 05:44:04;;;;;;;12.70;6.88;;;2.50;47.10;;;;;;5113277;28;20023;-21
2022/03/24 05:46:41;;;;;;;12.48;7.50;;;2.60;46.00;;;;;;5112970;28;20072;-21
2022/03/24 05:49:09;;;;;;;11.20;6.78;;;2.70;45.70;;;;;;5113371;28;20038;-21
2022/03/24 05:51:36;;;;;;;11.75;7.45;;;2.80;45.90;;;;;;5112869;28;20026;-21
2022/03/24 05:54:03;;;;;;;12.38;7.70;;;2.90;46.20;;;;;;5112908;28;20038;-21
2022/03/24 05:56:30;;;;;;;32.55;18.58;;;2.90;45.80;;;;;;5112674;28;20483;-21
2022/03/24 05:58:56;;;;;;;14.38;8.13;;;3.00;49.20;;;;;;5113385;28;20035;-21
2022/03/24 06:01:25;;;;;;;13.70;7.22;;;3.20;47.30;;;;;;5114678;28;20043;-21
2022/03/24 06:03:52;;;;;;;17.33;10.52;;;3.30;46.70;;;;;;5116416;28;20027;-21
2022/03/24 06:06:20;;;;;;;16.50;9.75;;;3.40;46.80;;;;;;5116184;28;20481;-21
2022/03/24 06:08:52;;;;;;;19.13;10.80;;;3.60;46.80;;;;;;5115241;28;20152;-21
2022/03/24 06:11:20;;;;;;;14.77;8.73;;;3.70;46.20;;;;;;5115323;28;20081;-21
2022/03/24 06:13:46;;;;;;;24.08;13.65;;;3.90;46.50;;;;;;5116350;28;20054;-21
2022/03/24 06:16:15;;;;;;;32.22;16.90;;;4.00;46.30;;;;;;5116246;28;20028;-21
2022/03/24 06:18:41;;;;;;;30.80;18.13;;;4.20;46.10;;;;;;5116007;27;20055;-21
2022/03/24 06:21:08;;;;;;;54.75;28.95;;;4.40;46.00;;;;;;5116949;28;20024;-21
2022/03/24 06:23:35;;;;;;;39.42;20.13;;;4.60;47.50;;;;;;5116495;28;20081;-21
2022/03/24 06:26:01;;;;;;;24.67;13.68;;;4.80;46.40;;;;;;5116327;28;20110;-21
2022/03/24 06:28:27;;;;;;;17.80;10.52;;;5.00;46.50;;;;;;5116153;28;20446;-21
2022/03/24 06:30:54;;;;;;;33.40;18.92;;;5.20;46.10;;;;;;5117170;28;20032;-21
2022/03/24 06:33:20;;;;;;;26.90;16.13;;;5.40;45.50;;;;;;5116005;28;20433;-21
2022/03/24 06:35:48;;;;;;;30.55;17.38;;;5.60;45.40;;;;;;5116182;28;20032;-21
2022/03/24 06:38:15;;;;;;;20.20;11.88;;;5.80;45.40;;;;;;5115623;28;20110;-20
2022/03/24 06:40:42;;;;;;;19.52;12.07;;;6.00;45.90;;;;;;5116170;28;20016;-21
2022/03/24 06:43:10;;;;;;;27.15;15.93;;;6.20;45.70;;;;;;5116120;27;20038;-21
2022/03/24 06:45:37;;;;;;;29.48;18.00;;;6.40;45.90;;;;;;5115971;28;20023;-21
2022/03/24 06:48:07;;;;;;;28.30;17.88;;;6.50;46.30;;;;;;5115675;28;20027;-21
2022/03/24 06:50:35;;;;;;;28.40;16.42;;;6.80;45.80;;;;;;5115400;28;20510;-21
2022/03/24 06:53:03;;;;;;;21.13;12.80;;;6.90;45.50;;;;;;5115885;28;20076;-21
2022/03/24 06:55:29;;;;;;;26.90;16.10;;;7.20;45.30;;;;;;5116194;28;20023;-21
2022/03/24 06:57:55;;;;;;;16.25;10.27;;;7.40;45.40;;;;;;5116647;28;20028;-21
2022/03/24 07:00:21;;;;;;;13.27;8.38;;;7.60;44.70;;;;;;5115187;28;20498;-21
2022/03/24 07:02:47;;;;;;;20.90;13.38;;;7.80;44.60;;;;;;5114135;28;20051;-21
2022/03/24 07:05:14;;;;;;;20.58;11.80;;;8.00;45.70;;;;;;5115199;28;20020;-20
2022/03/24 07:07:41;;;;;;;20.23;11.85;;;8.20;44.30;;;;;;5115632;28;20035;-20
2022/03/24 07:10:08;;;;;;;17.85;10.77;;;8.40;44.50;;;;;;5115549;27;20152;-21
2022/03/24 07:12:34;;;;;;;35.83;20.55;;;8.70;43.90;;;;;;5114673;28;20053;-21
2022/03/24 07:15:01;;;;;;;19.33;11.95;;;8.90;44.10;;;;;;5115477;28;20022;-20
2022/03/24 07:17:27;;;;;;;21.30;13.07;;;9.10;44.00;;;;;;5114932;27;20580;-20
2022/03/24 07:19:53;;;;;;;21.48;13.07;;;9.40;44.00;;;;;;5114973;28;20108;-21
2022/03/24 07:22:19;;;;;;;21.95;13.00;;;9.60;43.60;;;;;;5114858;28;20031;-20
2022/03/24 07:24:45;;;;;;;18.58;12.25;;;9.80;43.40;;;;;;5115400;28;20059;-20
2022/03/24 07:27:11;;;;;;;16.10;10.15;;;10.00;43.20;;;;;;5115172;28;20103;-20
2022/03/24 07:29:37;;;;;;;16.65;10.68;;;10.20;43.10;;;;;;5114832;28;20020;-19
2022/03/24 07:32:05;;;;;;;17.85;11.75;;;10.40;42.90;;;;;;5115135;28;20043;-19
2022/03/24 07:34:31;;;;;;;17.55;12.52;;;10.60;42.60;;;;;;5114576;28;20437;-20
2022/03/24 07:36:57;;;;;;;14.82;8.93;;;10.80;42.50;;;;;;5115012;28;20483;-19
2022/03/24 07:39:23;;;;;;;24.25;14.52;;;11.00;42.30;;;;;;5114720;28;20031;-20
2022/03/24 07:41:49;;;;;;;14.95;10.35;;;11.20;42.60;;;;;;5114598;28;20028;-19
2022/03/24 07:44:15;;;;;;;18.90;11.77;;;11.40;42.00;;;;;;5114283;28;20118;-21
2022/03/24 07:46:42;;;;;;;20.95;11.73;;;11.60;41.80;;;;;;5114465;28;20044;-20
2022/03/24 07:49:09;;;;;;;12.10;6.88;;;11.90;41.50;;;;;;5114465;28;20475;-20
2022/03/24 07:51:35;;;;;;;12.65;7.57;;;12.00;41.30;;;;;;5114677;28;20027;-20
2022/03/24 07:54:09;;;;;;;17.90;10.65;;;12.30;41.10;;;;;;5114735;28;20092;-20
2022/03/24 07:56:36;;;;;;;;;;;12.50;41.00;;;;;;5114948;28;20032;-20
2022/03/24 07:59:04;;;;;;;19.55;10.52;;;12.70;41.30;;;;;;5114304;28;19911;-20
2022/03/24 08:01:37;;;;;;;14.35;8.85;;;12.90;40.60;;;;;;5114248;28;20027;-20
2022/03/24 08:04:06;;;;;;;12.73;8.25;;;13.20;40.30;;;;;;5114142;28;20038;-20
2022/03/24 08:06:35;;;;;;;10.85;6.65;;;13.40;40.00;;;;;;5114223;28;20149;-20
2022/03/24 08:09:01;;;;;;;12.85;7.53;;;13.60;39.80;;;;;;5114433;28;20035;-20
2022/03/24 08:11:27;;;;;;;11.68;6.63;;;13.90;39.40;;;;;;5114371;28;20487;-20
2022/03/24 08:13:55;;;;;;;13.05;7.90;;;14.10;39.10;;;;;;5114026;28;20027;-19
2022/03/24 08:16:22;;;;;;;13.57;8.05;;;14.40;38.80;;;;;;5113798;28;20070;-20
2022/03/24 08:18:48;;;;;;;15.88;9.73;;;14.60;38.50;;;;;;5113773;28;20044;-20
2022/03/24 08:21:14;;;;;;;19.02;12.52;;;14.90;38.30;;;;;;5113823;28;20114;-20
2022/03/24 08:23:40;;;;;;;19.73;12.75;;;15.10;37.90;;;;;;5113868;28;20027;-20
2022/03/24 08:26:06;;;;;;;21.20;11.48;;;15.30;37.80;;;;;;5113256;28;20110;-19
2022/03/24 08:28:33;;;;;;;12.02;7.82;;;15.40;37.60;;;;;;5114012;28;20027;-20
2022/03/24 08:30:59;;;;;;;16.45;11.32;;;15.60;37.40;;;;;;5113861;28;20069;-20
2022/03/24 08:33:25;;;;;;;20.70;13.43;;;15.70;37.20;;;;;;5114028;27;20027;-20
2022/03/24 08:35:51;;;;;;;15.05;9.82;;;15.90;36.50;;;;;;5113744;28;20020;-20
2022/03/24 08:38:17;;;;;;;25.23;15.48;;;16.00;36.60;;;;;;5113819;28;20028;-20
2022/03/24 08:40:43;;;;;;;25.38;15.50;;;16.20;36.30;;;;;;5113673;28;20046;-20
2022/03/24 08:43:09;;;;;;;26.17;15.48;;;16.40;36.00;;;;;;5113723;28;20027;-20
2022/03/24 08:45:37;;;;;;;19.95;12.27;;;16.60;35.80;;;;;;5113827;28;20032;-20
2022/03/24 08:48:05;;;;;;;28.85;18.13;;;16.80;35.60;;;;;;5113590;28;20126;-20
2022/03/24 08:50:33;;;;;;;20.45;13.13;;;17.00;35.20;;;;;;5113522;28;20028;-20
2022/03/24 08:52:59;;;;;;;19.48;12.80;;;17.20;35.00;;;;;;5113839;28;20046;-19
2022/03/24 08:55:25;;;;;;;16.60;10.30;;;17.40;34.80;;;;;;5113518;28;20034;-20
2022/03/24 08:57:52;;;;;;;13.82;9.75;;;17.60;34.70;;;;;;5113797;28;20028;-20
2022/03/24 09:00:18;;;;;;;17.83;11.20;;;17.90;34.60;;;;;;5113179;28;20035;-20
2022/03/24 09:02:50;;;;;;;15.23;10.35;;;18.20;34.50;;;;;;5113417;28;20020;-20
2022/03/24 09:05:18;;;;;;;11.05;7.75;;;18.50;34.30;;;;;;5111979;28;20032;-20
2022/03/24 09:07:45;;;;;;;17.92;11.68;;;18.80;34.00;;;;;;5113711;28;20028;-20
2022/03/24 09:10:12;;;;;;;20.02;12.38;;;19.20;33.80;;;;;;5113589;28;20031;-19
2022/03/24 09:12:41;;;;;;;16.95;10.68;;;19.50;33.40;;;;;;5113660;28;20015;-20
2022/03/24 09:15:08;;;;;;;14.02;10.30;;;19.90;33.00;;;;;;5113632;28;20566;-19
2022/03/24 09:17:36;;;;;;;11.10;7.65;;;20.20;32.50;;;;;;5113344;28;20055;-20
2022/03/24 09:20:07;;;;;;;13.10;9.07;;;20.60;32.10;;;;;;5113542;28;20027;-20
2022/03/24 09:22:33;;;;;;;12.52;7.90;;;21.00;31.60;;;;;;5113107;28;20500;-19
2022/03/24 09:24:59;;;;;;;11.85;7.63;;;21.30;31.50;;;;;;5113210;28;20021;-20
2022/03/24 09:27:25;;;;;;;11.52;8.20;;;21.60;31.20;;;;;;5113555;28;20106;-20
2022/03/24 09:29:52;;;;;;;11.68;7.40;;;22.00;30.60;;;;;;5113445;28;20479;-20
2022/03/24 09:32:18;;;;;;;15.60;11.10;;;22.40;30.50;;;;;;5113020;28;20023;-20
2022/03/24 09:34:44;;;;;;;15.88;11.43;;;22.60;29.60;;;;;;5113697;28;20027;-20
2022/03/24 09:40:34;;;;;;;12.00;8.15;;;23.20;26.70;;;;;;5089908;27;20414;-21
2022/03/24 09:43:02;;;;;;;13.13;9.55;;;23.30;28.70;;;;;;5090941;28;20098;-20
2022/03/24 09:45:28;;;;;;;15.95;10.43;;;23.50;28.60;;;;;;5090904;28;20075;-20
2022/03/24 09:47:54;;;;;;;20.63;13.50;;;23.80;28.10;;;;;;5090544;28;20492;-20
2022/03/24 09:50:22;;;;;;;15.10;9.48;;;23.90;27.60;;;;;;5090479;28;20078;-20
2022/03/24 09:52:49;;;;;;;21.27;12.70;;;24.10;27.80;;;;;;5090715;28;20027;-20
2022/03/24 09:55:17;;;;;;;18.70;13.07;;;24.30;28.00;;;;;;5090380;28;20392;-20
2022/03/24 09:57:45;;;;;;;16.35;11.40;;;24.50;27.60;;;;;;5090331;28;20488;-20
2022/03/24 10:00:12;;;;;;;16.73;11.50;;;24.80;27.50;;;;;;5090550;28;20020;-20
2022/03/24 10:02:37;;;;;;;16.45;12.18;;;25.10;26.90;;;;;;5088828;28;20500;-20
2022/03/24 10:05:06;;;;;;;15.48;11.77;;;25.40;26.80;;;;;;5088881;28;20059;-21
2022/03/24 10:07:44;;;;;;;18.48;13.60;;;25.60;27.00;;;;;;5091012;28;20028;-20
2022/03/24 10:10:24;;;;;;;27.25;17.77;;;25.90;26.60;;;;;;5090498;28;20024;-20
2022/03/24 10:12:51;;;;;;;20.38;14.38;;;26.20;25.20;;;;;;5090412;28;20028;-20
2022/03/24 10:15:18;;;;;;;20.67;14.77;;;26.40;26.30;;;;;;5090389;28;20020;-20
2022/03/24 10:17:58;;;;;;;19.60;14.23;;;26.50;26.00;;;;;;5090017;28;20111;-20
2022/03/24 10:20:28;;;;;;;14.43;9.98;;;26.70;25.10;;;;;;5089622;28;20060;-20
2022/03/24 10:23:00;;;;;;;16.98;12.52;;;26.80;25.90;;;;;;5089946;28;20548;-20
2022/03/24 10:25:34;;;;;;;20.30;14.23;;;27.10;25.60;;;;;;5090664;28;20024;-20
2022/03/24 10:28:12;;;;;;;16.15;11.43;;;27.10;25.10;;;;;;5090475;28;20056;-20
2022/03/24 10:30:59;;;;;;;15.55;11.63;;;27.30;25.20;;;;;;5089543;28;20395;-20
2022/03/24 10:33:30;;;;;;;20.42;14.68;;;27.60;24.00;;;;;;5090054;28;20027;-19
2022/03/24 10:36:19;;;;;;;20.10;15.18;;;27.80;24.10;;;;;;5089548;28;20029;-20
2022/03/24 10:38:47;;;;;;;19.25;13.65;;;27.90;22.80;;;;;;5089497;28;20056;-20
2022/03/24 10:41:18;;;;;;;24.40;15.10;;;28.10;23.70;;;;;;5090144;28;20017;-20
2022/03/24 10:43:45;;;;;;;17.08;12.48;;;28.20;23.80;;;;;;5089847;28;20024;-20
2022/03/24 10:46:22;;;;;;;19.15;14.40;;;28.40;23.70;;;;;;5089409;28;20434;-20
2022/03/24 10:48:50;;;;;;;17.88;13.60;;;28.50;23.60;;;;;;5089409;28;20028;-20
2022/03/24 10:51:25;;;;;;;19.65;14.20;;;28.70;23.70;;;;;;5077714;28;20472;-20
2022/03/24 10:53:53;;;;;;;16.10;12.20;;;28.70;22.90;;;;;;5075791;28;20029;-20
2022/03/24 10:56:33;;;;;;;16.08;13.30;;;28.90;23.10;;;;;;5075874;28;20029;-20
2022/03/24 10:59:04;;;;;;;21.35;13.70;;;29.10;22.50;;;;;;5075629;28;20392;-20
2022/03/24 11:01:32;;;;;;;16.17;12.55;;;29.30;23.00;;;;;;5076529;28;20037;-19
2022/03/24 11:03:59;;;;;;;13.02;10.23;;;29.50;23.20;;;;;;5075623;28;20094;-20
2022/03/24 11:06:27;;;;;;;17.83;12.98;;;29.70;23.00;;;;;;5075266;28;20089;-20
2022/03/24 11:08:55;;;;;;;14.40;11.43;;;30.00;22.80;;;;;;5075518;28;20032;-20
2022/03/24 11:11:22;;;;;;;14.10;10.43;;;30.20;22.50;;;;;;5075484;28;20056;-20
2022/03/24 11:13:51;;;;;;;16.30;12.68;;;30.40;22.40;;;;;;5075708;28;20370;-20
2022/03/24 11:16:20;;;;;;;19.77;13.38;;;30.70;22.30;;;;;;5075192;28;20055;-20
2022/03/24 11:18:48;;;;;;;16.33;12.48;;;30.90;22.20;;;;;;5075306;28;20098;-19
2022/03/24 11:21:32;;;;;;;18.42;13.57;;;31.10;22.10;;;;;;5075287;28;20021;-20
2022/03/24 11:23:59;;;;;;;18.05;14.13;;;31.20;20.00;;;;;;5075295;28;20036;-19
2022/03/24 11:26:26;;;;;;;13.90;10.40;;;31.30;21.60;;;;;;5073805;28;20020;-20
2022/03/24 11:28:54;;;;;;;14.93;11.50;;;31.50;21.80;;;;;;5075099;28;20104;-20
2022/03/24 11:31:20;;;;;;;15.85;11.45;;;31.70;21.60;;;;;;5075832;28;20488;-20
2022/03/24 11:33:49;;;;;;;17.52;14.90;;;31.90;21.50;;;;;;5075545;28;20423;-19
2022/03/24 11:36:19;;;;;;;18.67;15.15;;;32.20;21.30;;;;;;5074718;28;20033;-20
2022/03/24 11:38:51;;;;;;;20.35;16.30;;;32.40;21.10;;;;;;5074913;28;20496;-20
2022/03/24 11:41:20;;;;;;;18.88;15.48;;;32.50;20.60;;;;;;5074919;28;20039;-20
2022/03/24 11:43:51;;;;;;;20.35;16.88;;;32.70;20.50;;;;;;5074867;28;20036;-20
2022/03/24 11:46:28;;;;;;;18.45;14.95;;;32.90;20.60;;;;;;5074990;28;20099;-19
2022/03/24 11:49:16;;;;;;;21.60;18.13;;;33.10;20.40;;;;;;5075100;28;20029;-20
2022/03/24 11:51:44;;;;;;;22.10;17.63;;;33.30;19.20;;;;;;5074991;28;20063;-20
2022/03/24 11:54:11;;;;;;;20.27;15.98;;;33.40;20.30;;;;;;5074993;28;20032;-20
2022/03/24 11:56:37;;;;;;;22.33;16.45;;;33.50;20.00;;;;;;5075069;28;20020;-20
2022/03/24 11:59:05;;;;;;;23.13;17.65;;;33.50;20.00;;;;;;5074463;28;20025;-20
2022/03/24 12:01:35;;;;;;;21.05;17.85;;;33.60;19.90;;;;;;5074297;28;20493;-20
2022/03/24 12:04:14;;;;;;;23.83;18.92;;;33.70;19.90;;;;;;5074027;28;20115;-19
2022/03/24 12:06:50;;;;;;;22.48;18.35;;;33.70;18.50;;;;;;5074614;28;20031;-20
2022/03/24 12:09:18;;;;;;;23.88;17.42;;;33.60;19.50;;;;;;5074435;28;20039;-20
2022/03/24 12:11:53;;;;;;;22.10;17.13;;;33.70;19.40;;;;;;5074668;28;20103;-19
2022/03/24 12:14:36;;;;;;;23.20;18.63;;;33.90;19.70;;;;;;5074155;28;20024;-20
2022/03/24 12:17:22;;;;;;;23.20;19.75;;;34.10;19.50;;;;;;5074265;28;20078;-20
2022/03/24 12:19:54;;;;;;;22.58;17.65;;;34.10;18.00;;;;;;5074078;28;20021;-20
2022/03/24 12:22:26;;;;;;;18.73;15.10;;;34.20;19.30;;;;;;5073923;28;20418;-20
2022/03/24 12:24:53;;;;;;;19.17;15.18;;;34.30;19.00;;;;;;5074055;28;20032;-20
2022/03/24 12:27:19;;;;;;;19.40;16.85;;;34.40;19.20;;;;;;5074361;28;20098;-20
2022/03/24 12:30:18;;;;;;;15.55;12.07;;;34.40;18.90;;;;;;5074329;28;20036;-20
2022/03/24 12:33:14;;;;;;;14.30;12.52;;;34.60;17.10;;;;;;5074193;28;20024;-20
2022/03/24 12:35:53;;;;;;;17.30;13.00;;;34.90;17.30;;;;;;5073787;28;20119;-20
2022/03/24 12:38:34;;;;;;;22.75;18.10;;;35.00;19.00;;;;;;5073691;28;20117;-19
2022/03/24 12:41:05;;;;;;;20.02;17.30;;;35.20;17.30;;;;;;5073770;28;20463;-20
2022/03/24 12:43:43;;;;;;;23.30;19.15;;;35.20;18.60;;;;;;5073764;28;20029;-20